createdAt,value
2017-12-01T00:00:30.246Z,66.03
2017-12-01T00:01:29.956Z,66.8
2017-12-01T00:02:30.200Z,66.13
2017-12-01T00:03:30.175Z,66.22
2017-12-01T00:04:29.890Z,66.51
2017-12-01T00:05:30.138Z,66.51
2017-12-01T00:06:30.113Z,66.22
2017-12-01T00:07:29.830Z,66.51
2017-12-01T00:08:30.074Z,66.51
2017-12-01T00:09:30.050Z,66.7
2017-12-01T00:10:30.031Z,67.18
2017-12-01T00:11:29.743Z,67.27
2017-12-01T00:12:29.991Z,67.55
2017-12-01T00:13:29.965Z,67.27
2017-12-01T00:14:29.948Z,67.46
2017-12-01T00:15:29.921Z,67.55
2017-12-01T00:16:29.644Z,67.27
2017-12-01T00:17:29.883Z,66.99
2017-12-01T00:18:29.593Z,66.89
2017-12-01T00:19:29.574Z,67.08
2017-12-01T00:20:29.550Z,67.46
2017-12-01T00:21:29.529Z,67.36
2017-12-01T00:22:29.777Z,67.36
2017-12-01T00:23:29.752Z,67.55
2017-12-01T00:24:29.466Z,67.55
2017-12-01T00:25:29.449Z,67.46
2017-12-01T00:26:29.422Z,67.55
2017-12-01T00:27:29.398Z,67.46
2017-12-01T00:28:29.644Z,67.74
2017-12-01T00:29:29.621Z,67.46
2017-12-01T00:30:29.337Z,67.55
2017-12-01T00:31:29.578Z,67.46
2017-12-01T00:32:29.294Z,67.55
2017-12-01T00:33:29.273Z,67.27
2017-12-01T00:34:29.516Z,67.65
2017-12-01T00:35:29.492Z,67.65
2017-12-01T00:36:29.474Z,67.36
2017-12-01T00:37:29.185Z,67.36
2017-12-01T00:38:29.431Z,67.18
2017-12-01T00:39:29.410Z,67.36
2017-12-01T00:40:29.124Z,67.65
2017-12-01T00:41:29.368Z,67.36
2017-12-01T00:42:29.354Z,67.36
2017-12-01T00:43:29.322Z,67.46
2017-12-01T00:44:29.043Z,67.36
2017-12-01T00:45:29.018Z,67.46
2017-12-01T00:46:28.994Z,67.36
2017-12-01T00:47:29.245Z,67.36
2017-12-01T00:48:28.954Z,67.46
2017-12-01T00:49:29.194Z,67.46
2017-12-01T00:50:28.921Z,67.46
2017-12-01T00:51:28.892Z,66.99
2017-12-01T00:52:29.139Z,66.99
2017-12-01T00:53:29.107Z,66.89
2017-12-01T00:54:28.824Z,67.18
2017-12-01T00:55:29.066Z,67.08
2017-12-01T00:56:28.782Z,66.8
2017-12-01T00:57:28.759Z,67.08
2017-12-01T00:58:28.752Z,67.08
2017-12-01T00:59:28.716Z,66.8
2017-12-01T01:00:28.694Z,66.8
2017-12-01T01:01:28.674Z,66.8
2017-12-01T01:02:28.658Z,66.99
2017-12-01T01:03:28.671Z,66.7
2017-12-01T01:04:28.607Z,67.08
2017-12-01T01:05:28.853Z,66.99
2017-12-01T01:06:28.835Z,67.08
2017-12-01T01:07:28.811Z,67.18
2017-12-01T01:08:28.786Z,67.08
2017-12-01T01:09:28.505Z,67.08
2017-12-01T01:10:28.481Z,67.08
2017-12-01T01:11:28.724Z,67.08
2017-12-01T01:12:28.436Z,66.6
2017-12-01T01:13:28.738Z,66.41
2017-12-01T01:14:28.664Z,66.6
2017-12-01T01:15:28.644Z,65.94
2017-12-01T01:16:28.632Z,66.22
2017-12-01T01:17:28.330Z,66.51
2017-12-01T01:18:28.572Z,66.32
2017-12-01T01:19:28.288Z,66.51
2017-12-01T01:20:28.530Z,66.32
2017-12-01T01:21:28.518Z,66.32
2017-12-01T01:22:28.484Z,66.32
2017-12-01T01:23:28.200Z,66.22
2017-12-01T01:24:28.449Z,66.22
2017-12-01T01:25:28.431Z,66.7
2017-12-01T01:26:28.403Z,66.41
2017-12-01T01:27:28.115Z,66.03
2017-12-01T01:28:28.093Z,66.22
2017-12-01T01:29:28.071Z,65.75
2017-12-01T01:30:28.053Z,65.84
2017-12-01T01:31:28.031Z,65.84
2017-12-01T01:32:28.272Z,65.75
2017-12-01T01:33:28.254Z,65.94
2017-12-01T01:34:27.965Z,65.94
2017-12-01T01:35:28.207Z,65.66
2017-12-01T01:36:28.125Z,65.56
2017-12-01T01:37:27.900Z,65.47
2017-12-01T01:38:27.884Z,65.66
2017-12-01T01:39:28.122Z,65.28
2017-12-01T01:40:28.110Z,65.28
2017-12-01T01:41:27.813Z,65.28
2017-12-01T01:42:28.057Z,65.28
2017-12-01T01:43:28.039Z,65.47
2017-12-01T01:44:28.017Z,65.37
2017-12-01T01:45:27.999Z,65
2017-12-01T01:46:27.971Z,65.28
2017-12-01T01:47:27.953Z,65.28
2017-12-01T01:48:27.930Z,65.37
2017-12-01T01:49:27.910Z,65.28
2017-12-01T01:50:27.886Z,65.19
2017-12-01T01:51:27.867Z,65.28
2017-12-01T01:52:27.846Z,65.28
2017-12-01T01:53:27.559Z,65.47
2017-12-01T01:54:27.538Z,65
2017-12-01T01:55:27.514Z,65.37
2017-12-01T01:56:27.496Z,65.28
2017-12-01T01:57:27.802Z,65.37
2017-12-01T01:58:27.459Z,65.19
2017-12-01T01:59:27.430Z,65.37
2017-12-01T02:00:27.408Z,65.19
2017-12-01T02:01:27.388Z,65.28
2017-12-01T02:02:27.627Z,65.28
2017-12-01T02:03:27.344Z,65.47
2017-12-01T02:04:27.588Z,65.47
2017-12-01T02:05:27.565Z,65.56
2017-12-01T02:06:27.544Z,65.84
2017-12-01T02:07:27.257Z,65.75
2017-12-01T02:08:27.498Z,66.03
2017-12-01T02:09:27.215Z,65.75
2017-12-01T02:10:27.197Z,65.75
2017-12-01T02:11:27.437Z,65.84
2017-12-01T02:12:27.418Z,65.94
2017-12-01T02:13:27.126Z,66.03
2017-12-01T02:14:27.378Z,66.03
2017-12-01T02:15:27.357Z,66.41
2017-12-01T02:16:27.345Z,66.41
2017-12-01T02:17:27.308Z,66.41
2017-12-01T02:18:27.027Z,66.51
2017-12-01T02:19:27.266Z,66.32
2017-12-01T02:20:26.978Z,66.32
2017-12-01T02:21:27.233Z,66.13
2017-12-01T02:22:27.198Z,66.41
2017-12-01T02:23:26.919Z,66.51
2017-12-01T02:24:27.158Z,66.51
2017-12-01T02:25:27.138Z,66.7
2017-12-01T02:26:27.118Z,66.32
2017-12-01T02:27:26.827Z,66.6
2017-12-01T02:28:26.803Z,67.18
2017-12-01T02:29:26.782Z,67.08
2017-12-01T02:30:27.037Z,66.99
2017-12-01T02:31:26.755Z,67.08
2017-12-01T02:32:26.990Z,66.89
2017-12-01T02:33:26.979Z,66.7
2017-12-01T02:34:26.678Z,67.18
2017-12-01T02:35:26.923Z,67.27
2017-12-01T02:36:26.635Z,67.18
2017-12-01T02:37:26.875Z,66.51
2017-12-01T02:38:26.853Z,66.6
2017-12-01T02:39:26.571Z,67.18
2017-12-01T02:40:26.808Z,66.99
2017-12-01T02:41:26.792Z,66.89
2017-12-01T02:42:26.766Z,66.99
2017-12-01T02:43:26.746Z,66.89
2017-12-01T02:44:26.729Z,67.05
2017-12-01T02:45:26.440Z,66.95
2017-12-01T02:46:26.417Z,67.14
2017-12-01T02:47:26.393Z,67.43
2017-12-01T02:48:26.379Z,67.43
2017-12-01T02:49:26.351Z,67.33
2017-12-01T02:50:26.330Z,67.14
2017-12-01T02:51:26.576Z,66.95
2017-12-01T02:52:26.551Z,66.76
2017-12-01T02:53:26.261Z,66.95
2017-12-01T02:54:26.509Z,66.67
2017-12-01T02:55:26.221Z,67.05
2017-12-01T02:56:26.474Z,66.47
2017-12-01T02:57:26.492Z,66.47
2017-12-01T02:58:26.151Z,66.38
2017-12-01T02:59:26.131Z,66.38
2017-12-01T03:00:26.372Z,66.38
2017-12-01T03:01:26.083Z,66.47
2017-12-01T03:02:26.063Z,66.19
2017-12-01T03:03:26.040Z,66.19
2017-12-01T03:04:26.285Z,66.67
2017-12-01T03:05:25.996Z,66.38
2017-12-01T03:06:25.977Z,66.57
2017-12-01T03:07:26.216Z,66.95
2017-12-01T03:08:25.939Z,67.14
2017-12-01T03:09:25.916Z,67.14
2017-12-01T03:10:25.889Z,66.95
2017-12-01T03:11:25.863Z,67.43
2017-12-01T03:12:25.849Z,67.24
2017-12-01T03:13:26.085Z,67.33
2017-12-01T03:14:26.061Z,66.95
2017-12-01T03:15:25.781Z,67.24
2017-12-01T03:16:26.019Z,67.61
2017-12-01T03:17:25.992Z,67.71
2017-12-01T03:18:25.710Z,67.71
2017-12-01T03:19:25.951Z,67.9
2017-12-01T03:20:25.932Z,67.8
2017-12-01T03:21:25.643Z,68.15
2017-12-01T03:22:25.619Z,68.37
2017-12-01T03:23:25.863Z,67.96
2017-12-01T03:24:25.838Z,68.33
2017-12-01T03:25:25.818Z,68.52
2017-12-01T03:26:25.806Z,68.33
2017-12-01T03:27:25.780Z,68.24
2017-12-01T03:28:25.754Z,68.52
2017-12-01T03:29:25.728Z,68.52
2017-12-01T03:30:25.709Z,68.43
2017-12-01T03:31:25.431Z,68.9
2017-12-01T03:32:25.395Z,68.81
2017-12-01T03:33:25.636Z,68.71
2017-12-01T03:34:25.621Z,69.19
2017-12-01T03:35:25.328Z,69.09
2017-12-01T03:36:25.511Z,69.28
2017-12-01T03:37:25.283Z,69.57
2017-12-01T03:38:25.537Z,69.57
2017-12-01T03:39:25.510Z,69.47
2017-12-01T03:40:25.478Z,69.38
2017-12-01T03:41:25.452Z,69.28
2017-12-01T03:42:25.435Z,69.38
2017-12-01T03:43:25.416Z,69.57
2017-12-01T03:44:25.396Z,70.04
2017-12-01T03:45:25.099Z,70.14
2017-12-01T03:46:25.348Z,70.04
2017-12-01T03:47:25.320Z,70.14
2017-12-01T03:48:25.296Z,70.14
2017-12-01T03:49:25.273Z,70.14
2017-12-01T03:50:25.249Z,69.82
2017-12-01T03:51:24.961Z,70.1
2017-12-01T03:52:25.201Z,69.95
2017-12-01T03:53:25.179Z,70.1
2017-12-01T03:54:25.159Z,69.82
2017-12-01T03:55:25.134Z,69.82
2017-12-01T03:56:25.116Z,70.1
2017-12-01T03:57:24.825Z,70.01
2017-12-01T03:58:24.802Z,70.2
2017-12-01T03:59:25.041Z,70.1
2017-12-01T04:00:25.024Z,70.01
2017-12-01T04:01:25.001Z,69.34
2017-12-01T04:02:24.714Z,69.25
2017-12-01T04:03:24.683Z,69.25
2017-12-01T04:04:24.929Z,69.53
2017-12-01T04:05:24.906Z,69.63
2017-12-01T04:06:24.617Z,69.53
2017-12-01T04:07:24.597Z,69.44
2017-12-01T04:08:24.833Z,69.63
2017-12-01T04:09:24.815Z,69.72
2017-12-01T04:10:24.521Z,69.53
2017-12-01T04:11:24.500Z,69.34
2017-12-01T04:12:24.743Z,69.34
2017-12-01T04:13:24.455Z,69.06
2017-12-01T04:14:24.694Z,68.4
2017-12-01T04:15:24.686Z,68.87
2017-12-01T04:16:24.398Z,68.87
2017-12-01T04:17:24.624Z,68.3
2017-12-01T04:18:24.338Z,68.49
2017-12-01T04:19:24.321Z,68.21
2017-12-01T04:20:24.574Z,67.93
2017-12-01T04:21:24.536Z,67.74
2017-12-01T04:22:24.511Z,67.74
2017-12-01T04:23:24.220Z,68.02
2017-12-01T04:24:24.472Z,68.12
2017-12-01T04:25:24.438Z,68.02
2017-12-01T04:26:24.416Z,67.93
2017-12-01T04:27:24.129Z,67.93
2017-12-01T04:28:24.104Z,68.12
2017-12-01T04:29:24.085Z,67.83
2017-12-01T04:30:24.058Z,68.21
2017-12-01T04:31:24.298Z,67.93
2017-12-01T04:32:24.272Z,68.21
2017-12-01T04:33:24.253Z,68.02
2017-12-01T04:34:23.961Z,67.83
2017-12-01T04:35:24.202Z,67.36
2017-12-01T04:36:23.916Z,67.45
2017-12-01T04:37:24.154Z,67.17
2017-12-01T04:38:24.133Z,66.88
2017-12-01T04:39:24.111Z,66.88
2017-12-01T04:40:23.824Z,66.79
2017-12-01T04:41:24.062Z,67.26
2017-12-01T04:42:24.035Z,66.98
2017-12-01T04:43:23.754Z,66.88
2017-12-01T04:44:23.727Z,66.03
2017-12-01T04:45:23.700Z,65.94
2017-12-01T04:46:23.942Z,66.03
2017-12-01T04:47:23.933Z,66.22
2017-12-01T04:48:23.636Z,65.37
2017-12-01T04:49:23.606Z,65.75
2017-12-01T04:50:23.848Z,65.94
2017-12-01T04:51:23.824Z,65.37
2017-12-01T04:52:23.539Z,64.99
2017-12-01T04:53:23.514Z,65.18
2017-12-01T04:54:23.492Z,65.09
2017-12-01T04:55:23.466Z,65.18
2017-12-01T04:56:23.447Z,64.8
2017-12-01T04:57:23.688Z,64.33
2017-12-01T04:58:23.394Z,64.61
2017-12-01T04:59:23.369Z,64.71
2017-12-01T05:00:23.350Z,64.23
2017-12-01T05:01:23.323Z,64.14
2017-12-01T05:02:23.571Z,64.61
2017-12-01T05:03:23.550Z,64.23
2017-12-01T05:04:23.518Z,64.04
2017-12-01T05:05:23.232Z,63.95
2017-12-01T05:06:23.473Z,63.95
2017-12-01T05:07:23.184Z,64.04
2017-12-01T05:08:23.161Z,63.6
2017-12-01T05:09:23.412Z,63.01
2017-12-01T05:10:23.118Z,63.13
2017-12-01T05:11:23.358Z,63.7
2017-12-01T05:12:23.069Z,62.94
2017-12-01T05:13:23.047Z,62.94
2017-12-01T05:14:23.288Z,62.56
2017-12-01T05:15:23.262Z,62.75
2017-12-01T05:16:23.285Z,62.66
2017-12-01T05:17:23.216Z,62.85
2017-12-01T05:18:22.927Z,62.37
2017-12-01T05:19:22.906Z,62.47
2017-12-01T05:20:23.149Z,62.37
2017-12-01T05:21:22.862Z,62.37
2017-12-01T05:22:23.102Z,62.37
2017-12-01T05:23:22.816Z,62.37
2017-12-01T05:24:22.792Z,62.09
2017-12-01T05:25:22.767Z,62.37
2017-12-01T05:26:22.744Z,61.8
2017-12-01T05:27:22.720Z,61.61
2017-12-01T05:28:22.703Z,61.24
2017-12-01T05:29:22.937Z,61.15
2017-12-01T05:30:22.659Z,60.96
2017-12-01T05:31:22.899Z,60.58
2017-12-01T05:32:22.871Z,60.48
2017-12-01T05:33:22.581Z,59.91
2017-12-01T05:34:22.562Z,59.91
2017-12-01T05:35:22.535Z,59.81
2017-12-01T05:36:22.515Z,59.72
2017-12-01T05:37:22.751Z,59.53
2017-12-01T05:38:22.467Z,59.44
2017-12-01T05:39:22.443Z,59.63
2017-12-01T05:40:22.689Z,59.72
2017-12-01T05:41:22.398Z,59.81
2017-12-01T05:42:22.640Z,59.81
2017-12-01T05:43:22.353Z,59.63
2017-12-01T05:44:22.592Z,59.53
2017-12-01T05:45:22.568Z,59.63
2017-12-01T05:46:22.546Z,59.91
2017-12-01T05:47:22.521Z,59.72
2017-12-01T05:48:22.235Z,59.81
2017-12-01T05:49:22.478Z,59.72
2017-12-01T05:50:22.454Z,59.34
2017-12-01T05:51:22.432Z,59.16
2017-12-01T05:52:22.143Z,59.53
2017-12-01T05:53:22.384Z,59.44
2017-12-01T05:54:22.367Z,59.06
2017-12-01T05:55:22.073Z,59.53
2017-12-01T05:56:22.049Z,59.44
2017-12-01T05:57:22.026Z,59.53
2017-12-01T05:58:22.269Z,58.87
2017-12-01T05:59:22.247Z,58.87
2017-12-01T06:00:21.958Z,58.78
2017-12-01T06:01:22.200Z,58.78
2017-12-01T06:02:22.177Z,58.59
2017-12-01T06:03:22.158Z,58.97
2017-12-01T06:04:22.132Z,58.3
2017-12-01T06:05:22.109Z,58.68
2017-12-01T06:06:22.087Z,58.49
2017-12-01T06:07:22.068Z,58.87
2017-12-01T06:08:22.041Z,58.4
2017-12-01T06:09:22.018Z,58.4
2017-12-01T06:10:21.992Z,58.68
2017-12-01T06:11:21.978Z,58.59
2017-12-01T06:12:21.947Z,58.49
2017-12-01T06:13:21.925Z,58.49
2017-12-01T06:14:21.638Z,58.59
2017-12-01T06:15:21.617Z,58.59
2017-12-01T06:16:21.597Z,58.49
2017-12-01T06:17:21.837Z,58.3
2017-12-01T06:18:21.811Z,58.3
2017-12-01T06:19:21.806Z,58.49
2017-12-01T06:20:21.769Z,58.3
2017-12-01T06:21:21.753Z,58.68
2017-12-01T06:22:21.721Z,58.3
2017-12-01T06:23:21.704Z,58.78
2017-12-01T06:24:21.674Z,58.21
2017-12-01T06:25:21.651Z,58.68
2017-12-01T06:26:21.630Z,58.49
2017-12-01T06:27:21.345Z,58.68
2017-12-01T06:28:21.319Z,58.68
2017-12-01T06:29:21.627Z,58.68
2017-12-01T06:30:21.539Z,58.4
2017-12-01T06:31:21.516Z,58.68
2017-12-01T06:32:21.491Z,58.78
2017-12-01T06:33:21.201Z,58.68
2017-12-01T06:34:21.445Z,58.11
2017-12-01T06:35:21.163Z,58.68
2017-12-01T06:36:21.399Z,58.59
2017-12-01T06:37:21.383Z,58.4
2017-12-01T06:38:21.362Z,58.49
2017-12-01T06:39:21.332Z,58.49
2017-12-01T06:40:21.316Z,58.87
2017-12-01T06:41:21.300Z,59.34
2017-12-01T06:42:21.006Z,59.34
2017-12-01T06:43:21.243Z,58.87
2017-12-01T06:44:21.218Z,59.25
2017-12-01T06:45:20.927Z,59.25
2017-12-01T06:46:20.907Z,59.16
2017-12-01T06:47:20.889Z,59.72
2017-12-01T06:48:21.136Z,59.91
2017-12-01T06:49:20.834Z,59.91
2017-12-01T06:50:21.080Z,59.91
2017-12-01T06:51:21.067Z,59.81
2017-12-01T06:52:21.029Z,59.72
2017-12-01T06:53:21.006Z,59.72
2017-12-01T06:54:20.987Z,59.81
2017-12-01T06:55:20.966Z,59.72
2017-12-01T06:56:20.944Z,59.72
2017-12-01T06:57:20.653Z,59.53
2017-12-01T06:58:20.892Z,59.53
2017-12-01T06:59:20.610Z,59.72
2017-12-01T07:00:20.851Z,59.91
2017-12-01T07:01:20.829Z,59.91
2017-12-01T07:02:20.552Z,59.91
2017-12-01T07:03:20.513Z,59.91
2017-12-01T07:04:20.757Z,60
2017-12-01T07:05:20.469Z,59.81
2017-12-01T07:06:20.708Z,59.91
2017-12-01T07:07:20.434Z,60
2017-12-01T07:08:20.400Z,59.81
2017-12-01T07:09:20.381Z,60
2017-12-01T07:10:20.621Z,60.1
2017-12-01T07:11:20.595Z,59.81
2017-12-01T07:12:20.581Z,59.81
2017-12-01T07:13:20.283Z,59.81
2017-12-01T07:14:20.526Z,59.81
2017-12-01T07:15:20.239Z,59.91
2017-12-01T07:16:20.222Z,59.91
2017-12-01T07:17:20.193Z,59.81
2017-12-01T07:18:20.438Z,59.91
2017-12-01T07:19:20.147Z,59.91
2017-12-01T07:20:20.125Z,59.91
2017-12-01T07:21:20.363Z,60
2017-12-01T07:22:20.424Z,60
2017-12-01T07:23:20.056Z,59.81
2017-12-01T07:24:20.038Z,60
2017-12-01T07:25:20.016Z,60.19
2017-12-01T07:26:20.252Z,60.19
2017-12-01T07:27:20.430Z,60.38
2017-12-01T07:28:20.288Z,60.19
2017-12-01T07:29:20.194Z,60.19
2017-12-01T07:30:20.167Z,60.19
2017-12-01T07:31:19.876Z,60.29
2017-12-01T07:32:19.858Z,60.29
2017-12-01T07:33:19.827Z,60.29
2017-12-01T07:34:19.807Z,60.29
2017-12-01T07:35:19.783Z,60.48
2017-12-01T07:36:20.026Z,60.48
2017-12-01T07:37:19.739Z,60
2017-12-01T07:38:19.980Z,60.19
2017-12-01T07:39:19.696Z,60.58
2017-12-01T07:40:19.677Z,60.19
2017-12-01T07:41:19.912Z,60.58
2017-12-01T07:42:19.626Z,60.48
2017-12-01T07:43:19.600Z,60.1
2017-12-01T07:44:19.851Z,60.99
2017-12-01T07:45:19.558Z,60.29
2017-12-01T07:46:19.533Z,60.86
2017-12-01T07:47:19.778Z,60.89
2017-12-01T07:48:19.488Z,60.77
2017-12-01T07:49:19.466Z,60.99
2017-12-01T07:50:19.707Z,60.51
2017-12-01T07:51:19.691Z,60.22
2017-12-01T07:52:19.399Z,60.7
2017-12-01T07:53:19.641Z,60.32
2017-12-01T07:54:19.359Z,60.03
2017-12-01T07:55:19.600Z,60.13
2017-12-01T07:56:19.309Z,60.32
2017-12-01T07:57:19.553Z,60.8
2017-12-01T07:58:19.260Z,60.89
2017-12-01T07:59:19.249Z,60.32
2017-12-01T08:00:19.480Z,60.51
2017-12-01T08:01:19.460Z,60.13
2017-12-01T08:02:19.173Z,60.51
2017-12-01T08:03:19.159Z,60.89
2017-12-01T08:04:19.391Z,60.89
2017-12-01T08:05:19.373Z,60.61
2017-12-01T08:06:19.348Z,60.13
2017-12-01T08:07:19.323Z,60.89
2017-12-01T08:08:19.042Z,60.32
2017-12-01T08:09:19.279Z,60.99
2017-12-01T08:10:19.258Z,60.89
2017-12-01T08:11:18.974Z,61.08
2017-12-01T08:12:19.213Z,60.7
2017-12-01T08:13:19.194Z,61.18
2017-12-01T08:14:18.905Z,61.18
2017-12-01T08:15:19.152Z,60.89
2017-12-01T08:16:18.858Z,60.99
2017-12-01T08:17:19.101Z,61.08
2017-12-01T08:18:19.079Z,60.8
2017-12-01T08:19:19.056Z,60.7
2017-12-01T08:20:19.033Z,60.89
2017-12-01T08:21:18.748Z,60.8
2017-12-01T08:22:18.986Z,60.7
2017-12-01T08:23:18.704Z,60.7
2017-12-01T08:24:18.952Z,60.89
2017-12-01T08:25:18.660Z,60.99
2017-12-01T08:26:18.903Z,60.61
2017-12-01T08:27:18.882Z,60.7
2017-12-01T08:28:18.599Z,60.7
2017-12-01T08:29:18.838Z,60.99
2017-12-01T08:30:18.822Z,60.99
2017-12-01T08:31:18.796Z,61.27
2017-12-01T08:32:18.786Z,61.27
2017-12-01T08:33:18.743Z,61.46
2017-12-01T08:34:18.745Z,61.18
2017-12-01T08:35:18.441Z,61.08
2017-12-01T08:36:18.681Z,61.18
2017-12-01T08:37:18.704Z,61.08
2017-12-01T08:38:18.638Z,61.08
2017-12-01T08:39:18.346Z,61.08
2017-12-01T08:40:18.602Z,61.21
2017-12-01T08:41:18.568Z,61.02
2017-12-01T08:42:18.552Z,61.3
2017-12-01T08:43:18.537Z,61.49
2017-12-01T08:44:18.238Z,61.3
2017-12-01T08:45:18.217Z,61.3
2017-12-01T08:46:18.195Z,61.11
2017-12-01T08:47:18.172Z,61.58
2017-12-01T08:48:18.413Z,61.4
2017-12-01T08:49:18.134Z,61.58
2017-12-01T08:50:18.376Z,61.58
2017-12-01T08:51:18.348Z,61.68
2017-12-01T08:52:18.060Z,61.3
2017-12-01T08:53:18.040Z,61.68
2017-12-01T08:54:18.283Z,61.49
2017-12-01T08:55:17.999Z,61.49
2017-12-01T08:56:18.245Z,61.4
2017-12-01T08:57:18.219Z,62.05
2017-12-01T08:58:18.195Z,62.34
2017-12-01T08:59:18.188Z,62.24
2017-12-01T09:00:17.890Z,62.34
2017-12-01T09:01:17.872Z,62.34
2017-12-01T09:02:17.848Z,62.24
2017-12-01T09:03:17.828Z,62.43
2017-12-01T09:04:17.804Z,61.96
2017-12-01T09:05:18.045Z,61.96
2017-12-01T09:06:18.028Z,62.34
2017-12-01T09:07:17.736Z,62.24
2017-12-01T09:08:17.982Z,62.15
2017-12-01T09:09:17.698Z,61.68
2017-12-01T09:10:17.672Z,62.43
2017-12-01T09:11:17.656Z,62.43
2017-12-01T09:12:17.951Z,61.77
2017-12-01T09:13:17.873Z,61.96
2017-12-01T09:14:17.854Z,62.05
2017-12-01T09:15:17.566Z,62.34
2017-12-01T09:16:17.807Z,62.72
2017-12-01T09:17:17.531Z,62.43
2017-12-01T09:18:17.503Z,62.43
2017-12-01T09:19:17.742Z,62.53
2017-12-01T09:20:17.719Z,62.62
2017-12-01T09:21:17.436Z,62.62
2017-12-01T09:22:17.677Z,62.72
2017-12-01T09:23:17.662Z,62.53
2017-12-01T09:24:17.675Z,62.53
2017-12-01T09:25:17.347Z,62.62
2017-12-01T09:26:17.326Z,62.15
2017-12-01T09:27:17.571Z,62.43
2017-12-01T09:28:17.289Z,62.43
2017-12-01T09:29:17.525Z,62.34
2017-12-01T09:30:17.242Z,62.82
2017-12-01T09:31:17.485Z,62.72
2017-12-01T09:32:17.462Z,62.82
2017-12-01T09:33:17.440Z,62.72
2017-12-01T09:34:17.416Z,63.29
2017-12-01T09:35:17.137Z,63.48
2017-12-01T09:36:17.379Z,63.39
2017-12-01T09:37:17.289Z,63.48
2017-12-01T09:38:17.332Z,63.1
2017-12-01T09:39:17.045Z,63.85
2017-12-01T09:40:17.289Z,63.29
2017-12-01T09:41:17.266Z,63.67
2017-12-01T09:42:17.244Z,63.57
2017-12-01T09:43:16.957Z,64.33
2017-12-01T09:44:17.201Z,64.23
2017-12-01T09:45:16.912Z,64.04
2017-12-01T09:46:16.896Z,64.23
2017-12-01T09:47:16.872Z,64.42
2017-12-01T09:48:16.854Z,64.71
2017-12-01T09:49:17.098Z,64.33
2017-12-01T09:50:17.069Z,64.42
2017-12-01T09:51:16.785Z,64.42
2017-12-01T09:52:16.763Z,64.81
2017-12-01T09:53:16.742Z,65.06
2017-12-01T09:54:17.049Z,65.44
2017-12-01T09:55:16.962Z,65.06
2017-12-01T09:56:16.940Z,65.25
2017-12-01T09:57:16.918Z,65.25
2017-12-01T09:58:16.900Z,65.06
2017-12-01T09:59:16.609Z,65.28
2017-12-01T10:00:16.599Z,65.37
2017-12-01T10:01:16.833Z,65.47
2017-12-01T10:02:16.809Z,65.28
2017-12-01T10:03:16.522Z,64.61
2017-12-01T10:04:16.508Z,64.9
2017-12-01T10:05:16.481Z,64.61
2017-12-01T10:06:16.724Z,65.28
2017-12-01T10:07:16.438Z,65.37
2017-12-01T10:08:16.681Z,64.9
2017-12-01T10:09:16.391Z,65
2017-12-01T10:10:16.388Z,65.37
2017-12-01T10:11:16.354Z,65.56
2017-12-01T10:12:16.337Z,65.28
2017-12-01T10:13:16.571Z,65.41
2017-12-01T10:14:16.289Z,65.59
2017-12-01T10:15:16.542Z,65.78
2017-12-01T10:16:16.250Z,65.88
2017-12-01T10:17:16.491Z,66.07
2017-12-01T10:18:16.516Z,66.45
2017-12-01T10:19:16.450Z,66.54
2017-12-01T10:20:16.165Z,66.16
2017-12-01T10:21:16.143Z,66.93
2017-12-01T10:22:16.120Z,67.77
2017-12-01T10:23:16.366Z,67.96
2017-12-01T10:24:16.360Z,68.06
2017-12-01T10:25:16.324Z,69.01
2017-12-01T10:26:16.037Z,69.01
2017-12-01T10:27:16.289Z,69.29
2017-12-01T10:28:16.009Z,69.77
2017-12-01T10:29:16.242Z,70.43
2017-12-01T10:30:16.227Z,70.43
2017-12-01T10:31:16.200Z,71.19
2017-12-01T10:32:16.189Z,71.76
2017-12-01T10:33:16.167Z,71.66
2017-12-01T10:34:15.873Z,72.52
2017-12-01T10:35:16.118Z,73.56
2017-12-01T10:36:16.104Z,73.27
2017-12-01T10:37:16.134Z,73.84
2017-12-01T10:38:15.796Z,74.69
2017-12-01T10:39:16.038Z,74.51
2017-12-01T10:40:15.756Z,74.98
2017-12-01T10:41:15.730Z,74.98
2017-12-01T10:42:15.723Z,75.45
2017-12-01T10:43:16.009Z,76.31
2017-12-01T10:44:15.935Z,78.11
2017-12-01T10:45:15.918Z,77.92
2017-12-01T10:46:15.629Z,78.49
2017-12-01T10:47:15.608Z,79.06
2017-12-01T10:48:15.586Z,80.57
2017-12-01T10:49:15.568Z,80
2017-12-01T10:50:15.812Z,80.19
2017-12-01T10:51:15.794Z,81.43
2017-12-01T10:52:15.510Z,81.43
2017-12-01T10:53:15.487Z,81.05
2017-12-01T10:54:15.467Z,80.86
2017-12-01T10:55:15.448Z,82.56
2017-12-01T10:56:15.691Z,81.99
2017-12-01T10:57:15.409Z,82.18
2017-12-01T10:58:15.650Z,81.24
2017-12-01T10:59:15.636Z,81.99
2017-12-01T11:00:15.630Z,83.42
2017-12-01T11:01:15.598Z,83.84
2017-12-01T11:02:15.306Z,84.22
2017-12-01T11:03:15.552Z,84.5
2017-12-01T11:04:15.271Z,84.69
2017-12-01T11:05:15.513Z,84.88
2017-12-01T11:06:15.227Z,85.17
2017-12-01T11:07:15.473Z,85.55
2017-12-01T11:08:15.193Z,87.25
2017-12-01T11:09:15.172Z,87.63
2017-12-01T11:10:15.148Z,88.77
2017-12-01T11:11:15.399Z,88.87
2017-12-01T11:12:15.378Z,88.72
2017-12-01T11:13:15.419Z,88.91
2017-12-01T11:14:15.078Z,88.53
2017-12-01T11:15:15.319Z,90.33
2017-12-01T11:16:15.034Z,91.47
2017-12-01T11:17:15.020Z,93.75
2017-12-01T11:18:14.994Z,97.92
2017-12-01T11:19:14.984Z,99.82
2017-12-01T11:20:14.956Z,99.99
2017-12-01T11:21:15.204Z,99.99
2017-12-01T11:22:14.919Z,99.99
2017-12-01T11:23:14.901Z,99.99
2017-12-01T11:24:14.887Z,99.99
2017-12-01T11:25:15.136Z,99.99
2017-12-01T11:26:15.110Z,99.99
2017-12-01T11:27:14.825Z,99.99
2017-12-01T11:28:15.069Z,99.99
2017-12-01T11:29:14.788Z,99.99
2017-12-01T11:30:15.032Z,99.99
2017-12-01T11:31:15.019Z,99.99
2017-12-01T11:32:14.993Z,99.99
2017-12-01T11:33:14.711Z,99.99
2017-12-01T11:34:14.956Z,99.99
2017-12-01T11:35:14.670Z,99.99
2017-12-01T11:36:14.650Z,99.99
2017-12-01T11:37:14.834Z,99.99
2017-12-01T11:38:14.614Z,99.99
2017-12-01T11:39:14.596Z,99.99
2017-12-01T11:40:14.840Z,99.99
2017-12-01T11:41:14.555Z,99.99
2017-12-01T11:42:14.801Z,99.99
2017-12-01T11:43:14.518Z,99.99
2017-12-01T11:44:14.771Z,99.99
2017-12-01T11:45:14.746Z,99.99
2017-12-01T11:46:14.456Z,99.99
2017-12-01T11:47:14.440Z,99.99
2017-12-01T11:48:14.683Z,99.99
2017-12-01T11:49:14.663Z,99.99
2017-12-01T11:50:14.646Z,99.99
2017-12-01T11:51:14.624Z,99.99
2017-12-01T11:52:14.601Z,99.99
2017-12-01T11:53:14.318Z,99.99
2017-12-01T11:54:14.564Z,99.99
2017-12-01T11:55:14.548Z,99.99
2017-12-01T11:56:14.525Z,99.99
2017-12-01T11:57:14.246Z,99.99
2017-12-01T11:58:14.487Z,99.99
2017-12-01T11:59:14.463Z,99.99
2017-12-01T12:00:14.446Z,99.99
2017-12-01T12:01:14.161Z,99.99
2017-12-01T12:02:14.408Z,99.99
2017-12-01T12:03:14.384Z,99.99
2017-12-01T12:04:14.367Z,99.99
2017-12-01T12:05:14.346Z,99.99
2017-12-01T12:06:14.329Z,99.99
2017-12-01T12:07:14.042Z,99.99
2017-12-01T12:08:14.023Z,99.99
2017-12-01T12:09:14.273Z,99.99
2017-12-01T12:10:13.987Z,99.99
2017-12-01T12:11:14.252Z,99.99
2017-12-01T12:12:14.008Z,99.99
2017-12-01T12:13:14.202Z,99.99
2017-12-01T12:14:14.189Z,99.99
2017-12-01T12:15:14.174Z,99.99
2017-12-01T12:16:14.150Z,99.99
2017-12-01T12:17:13.874Z,99.99
2017-12-01T12:18:13.859Z,99.99
2017-12-01T12:19:14.109Z,99.99
2017-12-01T12:20:14.089Z,99.99
2017-12-01T12:21:14.076Z,99.99
2017-12-01T12:22:14.065Z,99.99
2017-12-01T12:23:14.049Z,99.99
2017-12-01T12:24:13.769Z,99.99
2017-12-01T12:25:13.758Z,99.99
2017-12-01T12:26:14.016Z,99.99
2017-12-01T12:27:14.000Z,99.99
2017-12-01T12:28:13.718Z,99.99
2017-12-01T12:29:13.973Z,99.99
2017-12-01T12:30:13.695Z,99.99
2017-12-01T12:31:13.681Z,99.99
2017-12-01T12:32:13.936Z,99.99
2017-12-01T12:33:13.734Z,99.99
2017-12-01T12:34:13.647Z,99.99
2017-12-01T12:35:13.899Z,99.99
2017-12-01T12:36:13.619Z,99.99
2017-12-01T12:37:13.869Z,99.99
2017-12-01T12:38:13.862Z,99.99
2017-12-01T12:39:13.846Z,99.99
2017-12-01T12:40:13.567Z,99.99
2017-12-01T12:41:13.823Z,99.99
2017-12-01T12:42:13.805Z,99.99
2017-12-01T12:43:13.530Z,99.99
2017-12-01T12:44:13.513Z,99.99
2017-12-01T12:45:13.500Z,99.99
2017-12-01T12:46:13.751Z,99.99
2017-12-01T12:47:13.749Z,99.99
2017-12-01T12:48:14.342Z,99.99
2017-12-01T12:49:13.448Z,99.99
2017-12-01T12:50:13.698Z,99.99
2017-12-01T12:51:13.424Z,99.99
2017-12-01T12:52:13.403Z,99.99
2017-12-01T12:53:13.654Z,99.99
2017-12-01T12:54:13.638Z,99.99
2017-12-01T12:55:13.362Z,99.99